sensor_id;sensor_type;location;lat;lon;timestamp;P1;durP1;ratioP1;P2;durP2;ratioP2
28796;SDS011;24974;54.444;18.560;2023-03-01T00:02:21;17.10;;;9.50;;
28796;SDS011;24974;54.444;18.560;2023-03-01T00:04:52;18.90;;;10.57;;
28796;SDS011;24974;54.444;18.560;2023-03-01T00:07:23;15.80;;;8.05;;
28796;SDS011;24974;54.444;18.560;2023-03-01T00:09:54;16.55;;;8.70;;
28796;SDS011;24974;54.444;18.560;2023-03-01T00:12:25;19.88;;;9.10;;
28796;SDS011;24974;54.444;18.560;2023-03-01T00:14:55;18.45;;;10.50;;
28796;SDS011;24974;54.444;18.560;2023-03-01T00:17:27;17.50;;;9.45;;
28796;SDS011;24974;54.444;18.560;2023-03-01T00:19:59;16.08;;;9.13;;
28796;SDS011;24974;54.444;18.560;2023-03-01T00:22:29;18.80;;;9.68;;
28796;SDS011;24974;54.444;18.560;2023-03-01T00:25:00;18.55;;;8.75;;
28796;SDS011;24974;54.444;18.560;2023-03-01T00:27:31;21.35;;;9.88;;
28796;SDS011;24974;54.444;18.560;2023-03-01T00:30:02;21.58;;;10.90;;
28796;SDS011;24974;54.444;18.560;2023-03-01T00:32:33;18.25;;;9.75;;
28796;SDS011;24974;54.444;18.560;2023-03-01T00:35:04;18.48;;;9.82;;
28796;SDS011;24974;54.444;18.560;2023-03-01T00:37:36;20.20;;;10.63;;
28796;SDS011;24974;54.444;18.560;2023-03-01T00:40:07;21.15;;;9.05;;
28796;SDS011;24974;54.444;18.560;2023-03-01T00:42:38;18.20;;;10.00;;
28796;SDS011;24974;54.444;18.560;2023-03-01T00:45:09;21.92;;;9.77;;
28796;SDS011;24974;54.444;18.560;2023-03-01T00:47:40;20.02;;;10.18;;
28796;SDS011;24974;54.444;18.560;2023-03-01T00:50:11;18.70;;;10.18;;
28796;SDS011;24974;54.444;18.560;2023-03-01T00:52:42;18.40;;;10.93;;
28796;SDS011;24974;54.444;18.560;2023-03-01T00:55:13;13.95;;;11.00;;
28796;SDS011;24974;54.444;18.560;2023-03-01T00:57:44;19.77;;;10.82;;
28796;SDS011;24974;54.444;18.560;2023-03-01T01:00:15;17.17;;;9.55;;
28796;SDS011;24974;54.444;18.560;2023-03-01T01:02:47;19.73;;;10.05;;
28796;SDS011;24974;54.444;18.560;2023-03-01T06:33:20;37.38;;;20.85;;
28796;SDS011;24974;54.444;18.560;2023-03-01T06:35:56;35.05;;;19.10;;
28796;SDS011;24974;54.444;18.560;2023-03-01T06:38:27;34.60;;;18.50;;
28796;SDS011;24974;54.444;18.560;2023-03-01T06:40:58;36.03;;;19.15;;
28796;SDS011;24974;54.444;18.560;2023-03-01T06:43:29;37.83;;;18.58;;
28796;SDS011;24974;54.444;18.560;2023-03-01T06:46:00;34.50;;;19.00;;
28796;SDS011;24974;54.444;18.560;2023-03-01T06:48:33;35.83;;;18.83;;
28796;SDS011;24974;54.444;18.560;2023-03-01T06:51:04;35.00;;;20.17;;
28796;SDS011;24974;54.444;18.560;2023-03-01T06:53:35;32.00;;;17.02;;
28796;SDS011;24974;54.444;18.560;2023-03-01T06:56:06;32.33;;;17.90;;
28796;SDS011;24974;54.444;18.560;2023-03-01T06:58:37;33.95;;;18.50;;
28796;SDS011;24974;54.444;18.560;2023-03-01T07:01:08;32.83;;;18.48;;
28796;SDS011;24974;54.444;18.560;2023-03-01T07:03:39;31.75;;;18.45;;
28796;SDS011;24974;54.444;18.560;2023-03-01T07:06:10;31.73;;;17.63;;
28796;SDS011;24974;54.444;18.560;2023-03-01T07:08:41;30.73;;;16.83;;
28796;SDS011;24974;54.444;18.560;2023-03-01T07:11:12;33.13;;;19.92;;
28796;SDS011;24974;54.444;18.560;2023-03-01T07:13:43;33.53;;;17.33;;
28796;SDS011;24974;54.444;18.560;2023-03-01T07:16:14;33.03;;;16.42;;
28796;SDS011;24974;54.444;18.560;2023-03-01T07:18:45;31.33;;;18.33;;
28796;SDS011;24974;54.444;18.560;2023-03-01T07:21:16;33.53;;;18.20;;
28796;SDS011;24974;54.444;18.560;2023-03-01T07:23:47;30.88;;;17.02;;
28796;SDS011;24974;54.444;18.560;2023-03-01T07:26:19;27.42;;;17.45;;
28796;SDS011;24974;54.444;18.560;2023-03-01T07:28:50;32.25;;;17.40;;
28796;SDS011;24974;54.444;18.560;2023-03-01T07:31:21;26.48;;;16.45;;
28796;SDS011;24974;54.444;18.560;2023-03-01T07:33:51;28.63;;;17.10;;
28796;SDS011;24974;54.444;18.560;2023-03-01T07:36:22;26.58;;;15.77;;
28796;SDS011;24974;54.444;18.560;2023-03-01T07:38:54;29.90;;;15.95;;
28796;SDS011;24974;54.444;18.560;2023-03-01T07:41:26;27.98;;;15.35;;
28796;SDS011;24974;54.444;18.560;2023-03-01T07:43:56;24.48;;;15.07;;
28796;SDS011;24974;54.444;18.560;2023-03-01T07:46:27;34.95;;;25.73;;
28796;SDS011;24974;54.444;18.560;2023-03-01T07:48:58;23.65;;;13.88;;
28796;SDS011;24974;54.444;18.560;2023-03-01T07:51:29;20.52;;;12.32;;
28796;SDS011;24974;54.444;18.560;2023-03-01T07:54:00;24.38;;;14.23;;
28796;SDS011;24974;54.444;18.560;2023-03-01T07:56:30;23.23;;;14.70;;
28796;SDS011;24974;54.444;18.560;2023-03-01T07:59:01;22.48;;;13.68;;
28796;SDS011;24974;54.444;18.560;2023-03-01T08:01:32;21.98;;;13.85;;
28796;SDS011;24974;54.444;18.560;2023-03-01T08:04:03;23.23;;;14.32;;
28796;SDS011;24974;54.444;18.560;2023-03-01T08:06:37;21.70;;;14.02;;
28796;SDS011;24974;54.444;18.560;2023-03-01T08:09:08;21.38;;;14.13;;
28796;SDS011;24974;54.444;18.560;2023-03-01T08:11:39;24.15;;;13.13;;
28796;SDS011;24974;54.444;18.560;2023-03-01T08:14:10;22.67;;;13.30;;
28796;SDS011;24974;54.444;18.560;2023-03-01T08:16:41;19.50;;;13.50;;
28796;SDS011;24974;54.444;18.560;2023-03-01T08:19:12;25.27;;;14.60;;
28796;SDS011;24974;54.444;18.560;2023-03-01T08:21:42;22.08;;;13.30;;
28796;SDS011;24974;54.444;18.560;2023-03-01T08:24:13;24.30;;;14.35;;
28796;SDS011;24974;54.444;18.560;2023-03-01T08:26:44;25.48;;;15.18;;
28796;SDS011;24974;54.444;18.560;2023-03-01T08:29:15;28.08;;;15.30;;
28796;SDS011;24974;54.444;18.560;2023-03-01T08:31:46;23.90;;;14.80;;
28796;SDS011;24974;54.444;18.560;2023-03-01T08:34:18;23.45;;;14.27;;
28796;SDS011;24974;54.444;18.560;2023-03-01T08:36:49;24.88;;;14.75;;
28796;SDS011;24974;54.444;18.560;2023-03-01T08:39:22;24.17;;;15.10;;
28796;SDS011;24974;54.444;18.560;2023-03-01T08:41:53;22.75;;;13.95;;
28796;SDS011;24974;54.444;18.560;2023-03-01T08:44:23;22.20;;;14.85;;
28796;SDS011;24974;54.444;18.560;2023-03-01T08:46:54;24.73;;;14.80;;
28796;SDS011;24974;54.444;18.560;2023-03-01T08:49:26;22.40;;;14.30;;
28796;SDS011;24974;54.444;18.560;2023-03-01T08:51:57;25.15;;;13.98;;
28796;SDS011;24974;54.444;18.560;2023-03-01T08:54:27;23.98;;;13.82;;
28796;SDS011;24974;54.444;18.560;2023-03-01T08:57:01;23.13;;;14.10;;
28796;SDS011;24974;54.444;18.560;2023-03-01T08:59:32;23.80;;;14.55;;
28796;SDS011;24974;54.444;18.560;2023-03-01T09:02:11;23.80;;;15.13;;
28796;SDS011;24974;54.444;18.560;2023-03-01T09:07:15;23.02;;;14.80;;
28796;SDS011;24974;54.444;18.560;2023-03-01T09:09:46;22.58;;;15.05;;
28796;SDS011;24974;54.444;18.560;2023-03-01T09:12:16;25.27;;;14.45;;
28796;SDS011;24974;54.444;18.560;2023-03-01T09:14:47;21.40;;;14.38;;
28796;SDS011;24974;54.444;18.560;2023-03-01T09:17:18;24.60;;;15.07;;
28796;SDS011;24974;54.444;18.560;2023-03-01T09:19:51;24.52;;;14.98;;
28796;SDS011;24974;54.444;18.560;2023-03-01T09:22:22;21.52;;;13.57;;
28796;SDS011;24974;54.444;18.560;2023-03-01T09:24:53;23.02;;;15.27;;
28796;SDS011;24974;54.444;18.560;2023-03-01T09:27:24;24.35;;;14.30;;
28796;SDS011;24974;54.444;18.560;2023-03-01T09:29:55;21.48;;;14.02;;
28796;SDS011;24974;54.444;18.560;2023-03-01T09:32:26;19.25;;;12.40;;
28796;SDS011;24974;54.444;18.560;2023-03-01T09:34:57;22.85;;;13.95;;
28796;SDS011;24974;54.444;18.560;2023-03-01T09:37:35;21.30;;;13.52;;
28796;SDS011;24974;54.444;18.560;2023-03-01T09:40:10;19.42;;;12.57;;
28796;SDS011;24974;54.444;18.560;2023-03-01T09:45:39;21.27;;;13.23;;
28796;SDS011;24974;54.444;18.560;2023-03-01T09:48:18;18.38;;;11.52;;
28796;SDS011;24974;54.444;18.560;2023-03-01T09:50:54;17.58;;;11.35;;
28796;SDS011;24974;54.444;18.560;2023-03-01T09:53:31;20.45;;;12.25;;
28796;SDS011;24974;54.444;18.560;2023-03-01T09:56:05;18.30;;;12.25;;
28796;SDS011;24974;54.444;18.560;2023-03-01T10:04:58;20.63;;;13.00;;
28796;SDS011;24974;54.444;18.560;2023-03-01T10:07:52;23.95;;;13.00;;
28796;SDS011;24974;54.444;18.560;2023-03-01T10:10:38;22.08;;;12.68;;
28796;SDS011;24974;54.444;18.560;2023-03-01T10:13:15;21.48;;;13.50;;
28796;SDS011;24974;54.444;18.560;2023-03-01T10:15:55;21.77;;;13.80;;
28796;SDS011;24974;54.444;18.560;2023-03-01T10:18:30;23.70;;;13.82;;
28796;SDS011;24974;54.444;18.560;2023-03-01T10:23:53;21.77;;;14.38;;
28796;SDS011;24974;54.444;18.560;2023-03-01T10:29:02;22.33;;;13.95;;
28796;SDS011;24974;54.444;18.560;2023-03-01T10:31:51;18.95;;;13.25;;
28796;SDS011;24974;54.444;18.560;2023-03-01T10:34:28;19.77;;;12.57;;
28796;SDS011;24974;54.444;18.560;2023-03-01T10:37:14;21.25;;;14.30;;
28796;SDS011;24974;54.444;18.560;2023-03-01T10:39:55;21.73;;;15.68;;
28796;SDS011;24974;54.444;18.560;2023-03-01T10:42:40;20.65;;;13.63;;
28796;SDS011;24974;54.444;18.560;2023-03-01T10:50:46;20.45;;;13.15;;
28796;SDS011;24974;54.444;18.560;2023-03-01T10:56:07;22.90;;;14.80;;
28796;SDS011;24974;54.444;18.560;2023-03-01T10:58:40;21.02;;;13.95;;
28796;SDS011;24974;54.444;18.560;2023-03-01T11:01:32;24.42;;;14.55;;
28796;SDS011;24974;54.444;18.560;2023-03-01T11:06:37;21.25;;;12.77;;
28796;SDS011;24974;54.444;18.560;2023-03-01T11:09:19;21.15;;;13.55;;
28796;SDS011;24974;54.444;18.560;2023-03-01T11:11:53;20.30;;;13.45;;
28796;SDS011;24974;54.444;18.560;2023-03-01T11:14:26;22.55;;;14.25;;
28796;SDS011;24974;54.444;18.560;2023-03-01T11:17:21;19.40;;;13.30;;
28796;SDS011;24974;54.444;18.560;2023-03-01T11:23:04;20.25;;;13.63;;
28796;SDS011;24974;54.444;18.560;2023-03-01T11:25:45;20.13;;;14.10;;
28796;SDS011;24974;54.444;18.560;2023-03-01T11:28:23;21.85;;;13.75;;
28796;SDS011;24974;54.444;18.560;2023-03-01T11:33:47;23.17;;;14.60;;
28796;SDS011;24974;54.444;18.560;2023-03-01T11:36:31;20.83;;;13.90;;
28796;SDS011;24974;54.444;18.560;2023-03-01T11:42:03;19.73;;;13.75;;
28796;SDS011;24974;54.444;18.560;2023-03-01T11:44:43;21.85;;;14.25;;
28796;SDS011;24974;54.444;18.560;2023-03-01T11:50:13;18.35;;;13.20;;
28796;SDS011;24974;54.444;18.560;2023-03-01T11:56:01;20.58;;;14.52;;
28796;SDS011;24974;54.444;18.560;2023-03-01T12:01:49;21.75;;;14.23;;
28796;SDS011;24974;54.444;18.560;2023-03-01T12:07:48;20.10;;;14.13;;
28796;SDS011;24974;54.444;18.560;2023-03-01T12:16:05;21.13;;;14.20;;
28796;SDS011;24974;54.444;18.560;2023-03-01T12:19:15;19.13;;;13.18;;
28796;SDS011;24974;54.444;18.560;2023-03-01T12:36:47;18.55;;;13.60;;
28796;SDS011;24974;54.444;18.560;2023-03-01T12:42:17;21.15;;;14.13;;
28796;SDS011;24974;54.444;18.560;2023-03-01T12:45:15;20.67;;;13.55;;
28796;SDS011;24974;54.444;18.560;2023-03-01T12:50:44;18.50;;;13.80;;
28796;SDS011;24974;54.444;18.560;2023-03-01T12:55:54;20.23;;;14.57;;
28796;SDS011;24974;54.444;18.560;2023-03-01T13:07:57;22.02;;;14.27;;
28796;SDS011;24974;54.444;18.560;2023-03-01T13:11:00;17.77;;;13.13;;
28796;SDS011;24974;54.444;18.560;2023-03-01T13:13:33;18.83;;;13.32;;
28796;SDS011;24974;54.444;18.560;2023-03-01T13:19:11;18.13;;;13.13;;
28796;SDS011;24974;54.444;18.560;2023-03-01T13:21:46;19.30;;;13.57;;
28796;SDS011;24974;54.444;18.560;2023-03-01T13:27:11;16.92;;;11.75;;
28796;SDS011;24974;54.444;18.560;2023-03-01T13:29:59;20.58;;;13.30;;
28796;SDS011;24974;54.444;18.560;2023-03-01T13:32:34;18.33;;;13.30;;
28796;SDS011;24974;54.444;18.560;2023-03-01T13:37:45;15.98;;;12.77;;
28796;SDS011;24974;54.444;18.560;2023-03-01T13:42:52;17.23;;;12.82;;
28796;SDS011;24974;54.444;18.560;2023-03-01T13:51:09;18.27;;;13.23;;
28796;SDS011;24974;54.444;18.560;2023-03-01T13:53:45;16.05;;;12.35;;
28796;SDS011;24974;54.444;18.560;2023-03-01T13:56:20;18.45;;;13.38;;
28796;SDS011;24974;54.444;18.560;2023-03-01T13:59:04;17.95;;;13.25;;
28796;SDS011;24974;54.444;18.560;2023-03-01T14:01:52;17.48;;;12.50;;
28796;SDS011;24974;54.444;18.560;2023-03-01T14:04:28;16.98;;;12.85;;
28796;SDS011;24974;54.444;18.560;2023-03-01T14:07:11;17.40;;;12.45;;
28796;SDS011;24974;54.444;18.560;2023-03-01T14:09:43;18.17;;;12.85;;
28796;SDS011;24974;54.444;18.560;2023-03-01T14:15:29;21.25;;;13.20;;
28796;SDS011;24974;54.444;18.560;2023-03-01T14:21:22;20.95;;;13.40;;
28796;SDS011;24974;54.444;18.560;2023-03-01T14:23:53;22.35;;;14.48;;
28796;SDS011;24974;54.444;18.560;2023-03-01T14:26:24;16.92;;;12.52;;
28796;SDS011;24974;54.444;18.560;2023-03-01T14:28:55;21.42;;;12.88;;
28796;SDS011;24974;54.444;18.560;2023-03-01T14:34:04;17.65;;;12.88;;
28796;SDS011;24974;54.444;18.560;2023-03-01T14:36:35;18.70;;;11.90;;
28796;SDS011;24974;54.444;18.560;2023-03-01T14:39:15;19.38;;;12.38;;
28796;SDS011;24974;54.444;18.560;2023-03-01T14:41:51;19.25;;;11.98;;
28796;SDS011;24974;54.444;18.560;2023-03-01T14:44:23;17.85;;;11.98;;
28796;SDS011;24974;54.444;18.560;2023-03-01T14:46:55;16.30;;;12.30;;
28796;SDS011;24974;54.444;18.560;2023-03-01T14:49:29;18.40;;;11.57;;
28796;SDS011;24974;54.444;18.560;2023-03-01T14:52:02;17.42;;;13.00;;
28796;SDS011;24974;54.444;18.560;2023-03-01T14:54:40;22.15;;;13.02;;
28796;SDS011;24974;54.444;18.560;2023-03-01T14:57:30;17.63;;;13.00;;
28796;SDS011;24974;54.444;18.560;2023-03-01T15:00:02;19.35;;;12.18;;
28796;SDS011;24974;54.444;18.560;2023-03-01T15:02:36;17.52;;;12.23;;
28796;SDS011;24974;54.444;18.560;2023-03-01T15:05:07;20.88;;;13.02;;
28796;SDS011;24974;54.444;18.560;2023-03-01T15:07:40;19.98;;;12.38;;
28796;SDS011;24974;54.444;18.560;2023-03-01T15:10:23;20.60;;;11.80;;
28796;SDS011;24974;54.444;18.560;2023-03-01T15:12:56;24.85;;;13.55;;
28796;SDS011;24974;54.444;18.560;2023-03-01T15:15:43;22.63;;;13.32;;
28796;SDS011;24974;54.444;18.560;2023-03-01T15:18:19;23.40;;;13.20;;
28796;SDS011;24974;54.444;18.560;2023-03-01T15:20:53;28.83;;;14.23;;
28796;SDS011;24974;54.444;18.560;2023-03-01T15:23:26;21.85;;;11.95;;
28796;SDS011;24974;54.444;18.560;2023-03-01T15:26:00;14.98;;;8.98;;
28796;SDS011;24974;54.444;18.560;2023-03-01T15:28:31;15.30;;;7.10;;
28796;SDS011;24974;54.444;18.560;2023-03-01T15:31:16;15.18;;;8.57;;
28796;SDS011;24974;54.444;18.560;2023-03-01T15:36:58;9.52;;;6.93;;
28796;SDS011;24974;54.444;18.560;2023-03-01T15:45:42;14.93;;;8.00;;
28796;SDS011;24974;54.444;18.560;2023-03-01T15:50:35;12.30;;;6.88;;
28796;SDS011;24974;54.444;18.560;2023-03-01T15:53:13;8.50;;;5.35;;
28796;SDS011;24974;54.444;18.560;2023-03-01T15:55:45;9.75;;;5.70;;
28796;SDS011;24974;54.444;18.560;2023-03-01T15:58:21;10.52;;;5.82;;
28796;SDS011;24974;54.444;18.560;2023-03-01T16:00:53;11.68;;;6.18;;
28796;SDS011;24974;54.444;18.560;2023-03-01T16:03:26;12.63;;;6.65;;
28796;SDS011;24974;54.444;18.560;2023-03-01T16:05:58;12.30;;;6.13;;
28796;SDS011;24974;54.444;18.560;2023-03-01T16:08:29;9.18;;;5.90;;
28796;SDS011;24974;54.444;18.560;2023-03-01T16:11:00;19.10;;;7.57;;
28796;SDS011;24974;54.444;18.560;2023-03-01T16:13:35;10.65;;;6.50;;
28796;SDS011;24974;54.444;18.560;2023-03-01T16:16:05;12.40;;;7.03;;
28796;SDS011;24974;54.444;18.560;2023-03-01T16:18:38;10.70;;;6.60;;
28796;SDS011;24974;54.444;18.560;2023-03-01T16:21:13;14.30;;;7.97;;
28796;SDS011;24974;54.444;18.560;2023-03-01T16:23:46;11.52;;;8.07;;
28796;SDS011;24974;54.444;18.560;2023-03-01T16:26:17;9.90;;;6.90;;
28796;SDS011;24974;54.444;18.560;2023-03-01T16:28:48;11.35;;;6.93;;
28796;SDS011;24974;54.444;18.560;2023-03-01T16:31:19;12.95;;;7.40;;
28796;SDS011;24974;54.444;18.560;2023-03-01T16:33:52;11.38;;;6.65;;
28796;SDS011;24974;54.444;18.560;2023-03-01T16:36:25;12.52;;;6.90;;
28796;SDS011;24974;54.444;18.560;2023-03-01T16:38:59;13.60;;;6.63;;
28796;SDS011;24974;54.444;18.560;2023-03-01T16:41:33;25.75;;;16.23;;
28796;SDS011;24974;54.444;18.560;2023-03-01T16:44:04;19.63;;;14.73;;
28796;SDS011;24974;54.444;18.560;2023-03-01T16:46:35;11.65;;;7.60;;
28796;SDS011;24974;54.444;18.560;2023-03-01T16:49:06;10.52;;;7.82;;
28796;SDS011;24974;54.444;18.560;2023-03-01T16:51:37;13.27;;;8.23;;
28796;SDS011;24974;54.444;18.560;2023-03-01T16:54:08;14.38;;;9.40;;
28796;SDS011;24974;54.444;18.560;2023-03-01T16:56:39;13.38;;;7.30;;
28796;SDS011;24974;54.444;18.560;2023-03-01T16:59:10;10.20;;;7.05;;
28796;SDS011;24974;54.444;18.560;2023-03-01T17:01:41;9.40;;;6.85;;
28796;SDS011;24974;54.444;18.560;2023-03-01T17:04:11;10.32;;;6.80;;
28796;SDS011;24974;54.444;18.560;2023-03-01T17:06:43;10.52;;;7.22;;
28796;SDS011;24974;54.444;18.560;2023-03-01T17:09:15;15.15;;;8.57;;
28796;SDS011;24974;54.444;18.560;2023-03-01T17:11:47;13.50;;;7.50;;
28796;SDS011;24974;54.444;18.560;2023-03-01T17:14:19;16.90;;;10.45;;
28796;SDS011;24974;54.444;18.560;2023-03-01T17:16:50;13.20;;;9.73;;
28796;SDS011;24974;54.444;18.560;2023-03-01T17:19:23;21.63;;;9.13;;
28796;SDS011;24974;54.444;18.560;2023-03-01T17:21:53;14.45;;;8.57;;
28796;SDS011;24974;54.444;18.560;2023-03-01T17:24:24;11.48;;;7.68;;
28796;SDS011;24974;54.444;18.560;2023-03-01T17:26:55;13.77;;;7.85;;
28796;SDS011;24974;54.444;18.560;2023-03-01T17:29:26;17.85;;;8.73;;
28796;SDS011;24974;54.444;18.560;2023-03-01T17:31:57;10.90;;;7.40;;
28796;SDS011;24974;54.444;18.560;2023-03-01T17:34:27;13.63;;;7.88;;
28796;SDS011;24974;54.444;18.560;2023-03-01T17:37:01;11.10;;;7.90;;
28796;SDS011;24974;54.444;18.560;2023-03-01T17:39:32;13.90;;;8.13;;
28796;SDS011;24974;54.444;18.560;2023-03-01T17:42:05;11.88;;;7.50;;
28796;SDS011;24974;54.444;18.560;2023-03-01T17:44:36;9.93;;;7.43;;
28796;SDS011;24974;54.444;18.560;2023-03-01T17:47:08;18.15;;;10.43;;
28796;SDS011;24974;54.444;18.560;2023-03-01T17:49:40;15.30;;;9.40;;
28796;SDS011;24974;54.444;18.560;2023-03-01T17:52:10;9.68;;;7.28;;
28796;SDS011;24974;54.444;18.560;2023-03-01T17:54:41;12.73;;;7.47;;
28796;SDS011;24974;54.444;18.560;2023-03-01T17:57:12;11.82;;;8.50;;
28796;SDS011;24974;54.444;18.560;2023-03-01T17:59:43;10.05;;;7.90;;
28796;SDS011;24974;54.444;18.560;2023-03-01T18:02:14;10.40;;;7.85;;
28796;SDS011;24974;54.444;18.560;2023-03-01T18:04:45;13.90;;;8.68;;
28796;SDS011;24974;54.444;18.560;2023-03-01T18:07:16;12.55;;;8.98;;
28796;SDS011;24974;54.444;18.560;2023-03-01T18:09:46;14.88;;;9.25;;
28796;SDS011;24974;54.444;18.560;2023-03-01T18:12:17;13.45;;;9.00;;
28796;SDS011;24974;54.444;18.560;2023-03-01T18:14:48;12.20;;;9.10;;
28796;SDS011;24974;54.444;18.560;2023-03-01T18:17:23;12.73;;;8.32;;
28796;SDS011;24974;54.444;18.560;2023-03-01T18:19:54;12.43;;;8.18;;
28796;SDS011;24974;54.444;18.560;2023-03-01T18:22:26;8.80;;;7.45;;
28796;SDS011;24974;54.444;18.560;2023-03-01T18:24:57;7.60;;;6.78;;
28796;SDS011;24974;54.444;18.560;2023-03-01T18:27:27;9.82;;;7.50;;
28796;SDS011;24974;54.444;18.560;2023-03-01T18:29:58;8.90;;;7.03;;
28796;SDS011;24974;54.444;18.560;2023-03-01T18:32:29;12.07;;;8.02;;
28796;SDS011;24974;54.444;18.560;2023-03-01T18:35:00;13.00;;;7.85;;
28796;SDS011;24974;54.444;18.560;2023-03-01T18:37:31;12.18;;;8.23;;
28796;SDS011;24974;54.444;18.560;2023-03-01T18:40:02;10.15;;;7.50;;
28796;SDS011;24974;54.444;18.560;2023-03-01T18:42:33;12.88;;;8.68;;
28796;SDS011;24974;54.444;18.560;2023-03-01T18:45:04;13.95;;;8.45;;
28796;SDS011;24974;54.444;18.560;2023-03-01T18:47:35;10.82;;;7.60;;
28796;SDS011;24974;54.444;18.560;2023-03-01T18:50:06;15.57;;;7.43;;
28796;SDS011;24974;54.444;18.560;2023-03-01T18:52:38;6.03;;;4.90;;
28796;SDS011;24974;54.444;18.560;2023-03-01T18:55:09;10.32;;;6.63;;
28796;SDS011;24974;54.444;18.560;2023-03-01T18:57:40;13.27;;;8.75;;
28796;SDS011;24974;54.444;18.560;2023-03-01T19:00:11;10.75;;;7.05;;
28796;SDS011;24974;54.444;18.560;2023-03-01T19:02:42;6.70;;;5.47;;
28796;SDS011;24974;54.444;18.560;2023-03-01T19:05:13;6.80;;;4.40;;
28796;SDS011;24974;54.444;18.560;2023-03-01T19:07:44;8.70;;;5.10;;
28796;SDS011;24974;54.444;18.560;2023-03-01T19:10:15;9.20;;;5.32;;
28796;SDS011;24974;54.444;18.560;2023-03-01T19:12:46;14.65;;;6.80;;
28796;SDS011;24974;54.444;18.560;2023-03-01T19:15:17;9.20;;;6.05;;
28796;SDS011;24974;54.444;18.560;2023-03-01T19:17:47;8.52;;;5.57;;
28796;SDS011;24974;54.444;18.560;2023-03-01T19:20:18;8.68;;;5.15;;
28796;SDS011;24974;54.444;18.560;2023-03-01T19:22:49;9.93;;;5.50;;
28796;SDS011;24974;54.444;18.560;2023-03-01T19:25:20;8.02;;;5.10;;
28796;SDS011;24974;54.444;18.560;2023-03-01T19:27:50;12.00;;;4.95;;
28796;SDS011;24974;54.444;18.560;2023-03-01T19:30:21;10.85;;;5.70;;
28796;SDS011;24974;54.444;18.560;2023-03-01T19:32:53;9.02;;;4.75;;
28796;SDS011;24974;54.444;18.560;2023-03-01T19:35:24;11.70;;;5.57;;
28796;SDS011;24974;54.444;18.560;2023-03-01T19:37:55;8.80;;;5.13;;
28796;SDS011;24974;54.444;18.560;2023-03-01T19:40:25;10.20;;;5.47;;
28796;SDS011;24974;54.444;18.560;2023-03-01T19:42:56;14.82;;;7.30;;
28796;SDS011;24974;54.444;18.560;2023-03-01T19:45:27;14.63;;;6.88;;
28796;SDS011;24974;54.444;18.560;2023-03-01T19:48:01;12.65;;;6.55;;
28796;SDS011;24974;54.444;18.560;2023-03-01T19:50:31;9.85;;;5.63;;
28796;SDS011;24974;54.444;18.560;2023-03-01T19:53:03;16.00;;;6.20;;
28796;SDS011;24974;54.444;18.560;2023-03-01T19:55:37;13.55;;;7.22;;
28796;SDS011;24974;54.444;18.560;2023-03-01T19:58:09;10.13;;;5.78;;
28796;SDS011;24974;54.444;18.560;2023-03-01T20:00:43;13.05;;;5.82;;
28796;SDS011;24974;54.444;18.560;2023-03-01T20:03:15;12.80;;;6.50;;
28796;SDS011;24974;54.444;18.560;2023-03-01T20:05:46;15.25;;;6.65;;
28796;SDS011;24974;54.444;18.560;2023-03-01T20:08:17;12.23;;;5.95;;
28796;SDS011;24974;54.444;18.560;2023-03-01T20:10:48;14.77;;;6.55;;
28796;SDS011;24974;54.444;18.560;2023-03-01T20:13:18;12.50;;;7.13;;
28796;SDS011;24974;54.444;18.560;2023-03-01T20:15:54;14.25;;;7.78;;
28796;SDS011;24974;54.444;18.560;2023-03-01T20:18:25;12.75;;;6.40;;
28796;SDS011;24974;54.444;18.560;2023-03-01T20:20:57;15.07;;;8.00;;
28796;SDS011;24974;54.444;18.560;2023-03-01T20:23:30;15.45;;;6.90;;
28796;SDS011;24974;54.444;18.560;2023-03-01T20:26:01;17.17;;;7.82;;
28796;SDS011;24974;54.444;18.560;2023-03-01T20:28:38;17.17;;;7.68;;
28796;SDS011;24974;54.444;18.560;2023-03-01T20:31:10;18.48;;;7.32;;
28796;SDS011;24974;54.444;18.560;2023-03-01T20:33:42;14.30;;;6.40;;
28796;SDS011;24974;54.444;18.560;2023-03-01T20:36:13;14.35;;;7.03;;
28796;SDS011;24974;54.444;18.560;2023-03-01T20:38:44;14.43;;;6.65;;
28796;SDS011;24974;54.444;18.560;2023-03-01T20:41:15;18.33;;;6.25;;
28796;SDS011;24974;54.444;18.560;2023-03-01T20:43:46;14.05;;;7.00;;
28796;SDS011;24974;54.444;18.560;2023-03-01T20:46:24;14.95;;;7.18;;
28796;SDS011;24974;54.444;18.560;2023-03-01T20:48:56;12.82;;;6.35;;
28796;SDS011;24974;54.444;18.560;2023-03-01T20:51:27;14.35;;;6.80;;
28796;SDS011;24974;54.444;18.560;2023-03-01T20:53:58;14.05;;;6.68;;
28796;SDS011;24974;54.444;18.560;2023-03-01T20:56:29;17.42;;;6.88;;
28796;SDS011;24974;54.444;18.560;2023-03-01T21:01:39;10.90;;;5.78;;
28796;SDS011;24974;54.444;18.560;2023-03-01T21:04:10;10.60;;;5.35;;
28796;SDS011;24974;54.444;18.560;2023-03-01T21:06:40;13.82;;;6.00;;
28796;SDS011;24974;54.444;18.560;2023-03-01T21:09:12;17.50;;;6.50;;
28796;SDS011;24974;54.444;18.560;2023-03-01T21:11:43;11.20;;;5.88;;
28796;SDS011;24974;54.444;18.560;2023-03-01T21:14:13;15.93;;;6.30;;
28796;SDS011;24974;54.444;18.560;2023-03-01T21:16:44;12.30;;;5.70;;
28796;SDS011;24974;54.444;18.560;2023-03-01T21:19:15;15.63;;;6.20;;
28796;SDS011;24974;54.444;18.560;2023-03-01T21:21:46;16.27;;;6.57;;
28796;SDS011;24974;54.444;18.560;2023-03-01T21:24:17;16.48;;;9.00;;
28796;SDS011;24974;54.444;18.560;2023-03-01T21:26:48;20.85;;;8.25;;
28796;SDS011;24974;54.444;18.560;2023-03-01T21:29:19;22.85;;;8.80;;
28796;SDS011;24974;54.444;18.560;2023-03-01T21:31:49;20.30;;;8.23;;
28796;SDS011;24974;54.444;18.560;2023-03-01T21:34:21;12.43;;;5.90;;
28796;SDS011;24974;54.444;18.560;2023-03-01T21:36:52;13.75;;;6.38;;
28796;SDS011;24974;54.444;18.560;2023-03-01T21:39:23;10.52;;;5.95;;
28796;SDS011;24974;54.444;18.560;2023-03-01T21:41:59;14.13;;;5.85;;
28796;SDS011;24974;54.444;18.560;2023-03-01T21:44:31;15.25;;;6.78;;
28796;SDS011;24974;54.444;18.560;2023-03-01T21:47:02;16.55;;;6.40;;
28796;SDS011;24974;54.444;18.560;2023-03-01T21:49:33;14.23;;;6.28;;
28796;SDS011;24974;54.444;18.560;2023-03-01T21:52:04;14.73;;;7.28;;
28796;SDS011;24974;54.444;18.560;2023-03-01T21:54:35;14.10;;;6.72;;
28796;SDS011;24974;54.444;18.560;2023-03-01T21:57:06;13.68;;;6.63;;
28796;SDS011;24974;54.444;18.560;2023-03-01T21:59:37;15.90;;;7.25;;
28796;SDS011;24974;54.444;18.560;2023-03-01T22:02:11;14.30;;;7.35;;
28796;SDS011;24974;54.444;18.560;2023-03-01T22:04:43;22.23;;;7.70;;
28796;SDS011;24974;54.444;18.560;2023-03-01T22:07:15;18.83;;;8.88;;
28796;SDS011;24974;54.444;18.560;2023-03-01T22:09:46;13.35;;;7.38;;
28796;SDS011;24974;54.444;18.560;2023-03-01T22:12:17;16.00;;;7.50;;
28796;SDS011;24974;54.444;18.560;2023-03-01T22:14:47;11.77;;;6.93;;
28796;SDS011;24974;54.444;18.560;2023-03-01T22:17:18;15.25;;;7.65;;
28796;SDS011;24974;54.444;18.560;2023-03-01T22:19:49;15.60;;;7.38;;
28796;SDS011;24974;54.444;18.560;2023-03-01T22:22:20;16.42;;;8.32;;
28796;SDS011;24974;54.444;18.560;2023-03-01T22:24:51;20.05;;;7.13;;
28796;SDS011;24974;54.444;18.560;2023-03-01T22:27:21;15.23;;;7.85;;